sensor_id;sensor_type;location;lat;lon;timestamp;temperature;humidity
78467;SHT31;67759;51.972;5.650;2024-03-17T00:00:11;14.8;43.7
78467;SHT31;67759;51.972;5.650;2024-03-17T00:02:46;14.7;43.8
78467;SHT31;67759;51.972;5.650;2024-03-17T00:05:22;14.7;44.0
78467;SHT31;67759;51.972;5.650;2024-03-17T00:07:54;14.7;44.0
78467;SHT31;67759;51.972;5.650;2024-03-17T00:10:23;14.7;44.2
78467;SHT31;67759;51.972;5.650;2024-03-17T00:12:53;14.7;44.0
78467;SHT31;67759;51.972;5.650;2024-03-17T00:15:21;14.7;44.1
78467;SHT31;67759;51.972;5.650;2024-03-17T00:17:50;14.6;43.9
78467;SHT31;67759;51.972;5.650;2024-03-17T00:20:19;14.6;44.2
78467;SHT31;67759;51.972;5.650;2024-03-17T00:22:50;14.6;44.3
78467;SHT31;67759;51.972;5.650;2024-03-17T00:25:19;14.5;44.5
78467;SHT31;67759;51.972;5.650;2024-03-17T00:27:48;14.4;44.9
78467;SHT31;67759;51.972;5.650;2024-03-17T00:30:21;14.4;45.0
78467;SHT31;67759;51.972;5.650;2024-03-17T00:32:50;14.4;45.2
78467;SHT31;67759;51.972;5.650;2024-03-17T00:35:18;14.4;45.2
78467;SHT31;67759;51.972;5.650;2024-03-17T00:37:53;14.4;45.2
78467;SHT31;67759;51.972;5.650;2024-03-17T00:40:22;14.5;45.3
78467;SHT31;67759;51.972;5.650;2024-03-17T00:42:51;14.5;45.1
78467;SHT31;67759;51.972;5.650;2024-03-17T00:45:20;14.5;45.1
78467;SHT31;67759;51.972;5.650;2024-03-17T00:47:49;14.6;44.9
78467;SHT31;67759;51.972;5.650;2024-03-17T00:50:18;14.6;44.9
78467;SHT31;67759;51.972;5.650;2024-03-17T00:52:47;14.6;44.8
78467;SHT31;67759;51.972;5.650;2024-03-17T00:55:17;14.6;44.9
78467;SHT31;67759;51.972;5.650;2024-03-17T00:57:46;14.6;45.0
78467;SHT31;67759;51.972;5.650;2024-03-17T01:00:23;14.5;45.2
78467;SHT31;67759;51.972;5.650;2024-03-17T01:02:54;14.5;45.5
78467;SHT31;67759;51.972;5.650;2024-03-17T01:05:23;14.5;45.5
78467;SHT31;67759;51.972;5.650;2024-03-17T01:11:08;14.6;45.0
78467;SHT31;67759;51.972;5.650;2024-03-17T01:13:50;14.6;44.9
78467;SHT31;67759;51.972;5.650;2024-03-17T01:16:18;14.5;45.1
78467;SHT31;67759;51.972;5.650;2024-03-17T01:18:46;14.4;45.2
78467;SHT31;67759;51.972;5.650;2024-03-17T01:21:15;14.4;45.5
78467;SHT31;67759;51.972;5.650;2024-03-17T01:23:44;14.4;45.8
78467;SHT31;67759;51.972;5.650;2024-03-17T01:26:16;14.4;45.5
78467;SHT31;67759;51.972;5.650;2024-03-17T01:28:47;14.5;45.7
78467;SHT31;67759;51.972;5.650;2024-03-17T01:31:15;14.5;45.5
78467;SHT31;67759;51.972;5.650;2024-03-17T01:33:45;14.6;45.5
78467;SHT31;67759;51.972;5.650;2024-03-17T01:36:18;14.7;45.2
78467;SHT31;67759;51.972;5.650;2024-03-17T01:38:46;14.7;45.0
78467;SHT31;67759;51.972;5.650;2024-03-17T01:41:15;14.7;44.6
78467;SHT31;67759;51.972;5.650;2024-03-17T01:43:44;14.7;44.5
78467;SHT31;67759;51.972;5.650;2024-03-17T01:46:14;14.7;44.5
78467;SHT31;67759;51.972;5.650;2024-03-17T01:48:45;14.7;44.7
78467;SHT31;67759;51.972;5.650;2024-03-17T01:51:16;14.6;44.6
78467;SHT31;67759;51.972;5.650;2024-03-17T01:53:51;14.6;44.4
78467;SHT31;67759;51.972;5.650;2024-03-17T01:56:24;14.6;44.5
78467;SHT31;67759;51.972;5.650;2024-03-17T01:58:53;14.5;44.6
78467;SHT31;67759;51.972;5.650;2024-03-17T02:01:22;14.4;44.8
78467;SHT31;67759;51.972;5.650;2024-03-17T02:03:52;14.4;45.0
78467;SHT31;67759;51.972;5.650;2024-03-17T02:06:20;14.3;45.2
78467;SHT31;67759;51.972;5.650;2024-03-17T02:08:51;14.2;45.4
78467;SHT31;67759;51.972;5.650;2024-03-17T02:11:26;14.1;45.5
78467;SHT31;67759;51.972;5.650;2024-03-17T02:13:56;14.0;45.8
78467;SHT31;67759;51.972;5.650;2024-03-17T02:16:26;13.9;45.9
78467;SHT31;67759;51.972;5.650;2024-03-17T02:18:57;13.8;46.0
78467;SHT31;67759;51.972;5.650;2024-03-17T02:21:27;13.8;46.2
78467;SHT31;67759;51.972;5.650;2024-03-17T02:23:56;13.7;46.3
78467;SHT31;67759;51.972;5.650;2024-03-17T02:26:27;13.7;46.5
78467;SHT31;67759;51.972;5.650;2024-03-17T02:28:55;13.7;46.7
78467;SHT31;67759;51.972;5.650;2024-03-17T02:31:24;13.7;46.8
78467;SHT31;67759;51.972;5.650;2024-03-17T02:33:53;13.7;46.9
78467;SHT31;67759;51.972;5.650;2024-03-17T02:36:22;13.7;46.9
78467;SHT31;67759;51.972;5.650;2024-03-17T02:38:50;13.8;46.6
78467;SHT31;67759;51.972;5.650;2024-03-17T02:41:35;13.9;46.2
78467;SHT31;67759;51.972;5.650;2024-03-17T02:44:05;13.9;46.0
78467;SHT31;67759;51.972;5.650;2024-03-17T02:46:33;14.0;46.1
78467;SHT31;67759;51.972;5.650;2024-03-17T02:49:05;14.0;46.0
78467;SHT31;67759;51.972;5.650;2024-03-17T02:51:36;14.0;46.1
78467;SHT31;67759;51.972;5.650;2024-03-17T02:54:06;14.1;46.2
78467;SHT31;67759;51.972;5.650;2024-03-17T02:56:36;14.2;45.8
78467;SHT31;67759;51.972;5.650;2024-03-17T02:59:07;14.3;45.7
78467;SHT31;67759;51.972;5.650;2024-03-17T03:01:35;14.3;45.5
78467;SHT31;67759;51.972;5.650;2024-03-17T03:04:04;14.3;45.5
78467;SHT31;67759;51.972;5.650;2024-03-17T03:06:34;14.4;45.6
78467;SHT31;67759;51.972;5.650;2024-03-17T03:09:06;14.4;45.7
78467;SHT31;67759;51.972;5.650;2024-03-17T03:11:40;14.4;45.7
78467;SHT31;67759;51.972;5.650;2024-03-17T03:14:09;14.4;45.7
78467;SHT31;67759;51.972;5.650;2024-03-17T03:16:38;14.4;45.6
78467;SHT31;67759;51.972;5.650;2024-03-17T03:19:07;14.4;45.5
78467;SHT31;67759;51.972;5.650;2024-03-17T03:21:35;14.4;45.7
78467;SHT31;67759;51.972;5.650;2024-03-17T03:24:07;14.4;45.6
78467;SHT31;67759;51.972;5.650;2024-03-17T03:26:36;14.4;45.6
78467;SHT31;67759;51.972;5.650;2024-03-17T03:29:06;14.4;45.7
78467;SHT31;67759;51.972;5.650;2024-03-17T03:31:39;14.5;45.5
78467;SHT31;67759;51.972;5.650;2024-03-17T03:34:08;14.5;45.4
78467;SHT31;67759;51.972;5.650;2024-03-17T03:36:39;14.6;45.1
78467;SHT31;67759;51.972;5.650;2024-03-17T03:39:08;14.6;45.1
78467;SHT31;67759;51.972;5.650;2024-03-17T03:41:40;14.6;45.4
78467;SHT31;67759;51.972;5.650;2024-03-17T03:44:09;14.6;45.1
78467;SHT31;67759;51.972;5.650;2024-03-17T03:46:39;14.6;44.8
78467;SHT31;67759;51.972;5.650;2024-03-17T03:49:08;14.6;44.8
78467;SHT31;67759;51.972;5.650;2024-03-17T03:51:38;14.6;45.2
78467;SHT31;67759;51.972;5.650;2024-03-17T03:54:07;14.6;45.2
78467;SHT31;67759;51.972;5.650;2024-03-17T03:56:36;14.5;45.2
78467;SHT31;67759;51.972;5.650;2024-03-17T03:59:04;14.5;45.3
78467;SHT31;67759;51.972;5.650;2024-03-17T04:01:33;14.5;45.5
78467;SHT31;67759;51.972;5.650;2024-03-17T04:04:03;14.5;45.5
78467;SHT31;67759;51.972;5.650;2024-03-17T04:06:32;14.5;45.8
78467;SHT31;67759;51.972;5.650;2024-03-17T04:09:04;14.5;46.0
78467;SHT31;67759;51.972;5.650;2024-03-17T04:11:35;14.5;45.7
78467;SHT31;67759;51.972;5.650;2024-03-17T04:14:04;14.5;45.7
78467;SHT31;67759;51.972;5.650;2024-03-17T04:16:35;14.5;45.6
78467;SHT31;67759;51.972;5.650;2024-03-17T04:19:03;14.4;45.6
78467;SHT31;67759;51.972;5.650;2024-03-17T04:21:33;14.4;45.8
78467;SHT31;67759;51.972;5.650;2024-03-17T04:24:03;14.3;45.9
78467;SHT31;67759;51.972;5.650;2024-03-17T04:26:35;14.3;45.9
78467;SHT31;67759;51.972;5.650;2024-03-17T04:29:04;14.2;46.1
78467;SHT31;67759;51.972;5.650;2024-03-17T04:31:33;14.2;46.2
78467;SHT31;67759;51.972;5.650;2024-03-17T04:34:02;14.2;46.4
78467;SHT31;67759;51.972;5.650;2024-03-17T04:36:31;14.2;46.5
78467;SHT31;67759;51.972;5.650;2024-03-17T04:38:59;14.2;46.7
78467;SHT31;67759;51.972;5.650;2024-03-17T04:41:28;14.2;46.7
78467;SHT31;67759;51.972;5.650;2024-03-17T04:43:56;14.2;46.7
78467;SHT31;67759;51.972;5.650;2024-03-17T04:46:26;14.3;46.5
78467;SHT31;67759;51.972;5.650;2024-03-17T04:48:57;14.3;46.2
78467;SHT31;67759;51.972;5.650;2024-03-17T04:51:25;14.3;46.2
78467;SHT31;67759;51.972;5.650;2024-03-17T04:53:54;14.3;46.4
78467;SHT31;67759;51.972;5.650;2024-03-17T04:56:22;14.3;46.2
78467;SHT31;67759;51.972;5.650;2024-03-17T04:58:51;14.3;46.2
78467;SHT31;67759;51.972;5.650;2024-03-17T05:01:21;14.3;46.4
78467;SHT31;67759;51.972;5.650;2024-03-17T05:03:52;14.3;46.4
78467;SHT31;67759;51.972;5.650;2024-03-17T05:06:22;14.3;46.4
78467;SHT31;67759;51.972;5.650;2024-03-17T05:08:52;14.3;46.3
78467;SHT31;67759;51.972;5.650;2024-03-17T05:11:21;14.3;46.7
78467;SHT31;67759;51.972;5.650;2024-03-17T05:13:53;14.4;46.8
78467;SHT31;67759;51.972;5.650;2024-03-17T05:16:21;14.5;46.7
78467;SHT31;67759;51.972;5.650;2024-03-17T05:18:58;14.7;46.3
78467;SHT31;67759;51.972;5.650;2024-03-17T05:21:31;14.8;45.9
78467;SHT31;67759;51.972;5.650;2024-03-17T05:24:05;14.8;45.8
78467;SHT31;67759;51.972;5.650;2024-03-17T05:26:35;14.9;45.6
78467;SHT31;67759;51.972;5.650;2024-03-17T05:29:03;15.0;45.3
78467;SHT31;67759;51.972;5.650;2024-03-17T05:31:32;15.1;45.1
78467;SHT31;67759;51.972;5.650;2024-03-17T05:34:01;15.1;44.9
78467;SHT31;67759;51.972;5.650;2024-03-17T05:36:29;15.1;44.7
78467;SHT31;67759;51.972;5.650;2024-03-17T05:39:01;15.0;44.9
78467;SHT31;67759;51.972;5.650;2024-03-17T05:41:30;15.0;45.0
78467;SHT31;67759;51.972;5.650;2024-03-17T05:44:00;15.0;45.0
78467;SHT31;67759;51.972;5.650;2024-03-17T05:46:30;14.9;45.1
78467;SHT31;67759;51.972;5.650;2024-03-17T05:48:59;14.9;45.4
78467;SHT31;67759;51.972;5.650;2024-03-17T05:51:30;14.8;45.5
78467;SHT31;67759;51.972;5.650;2024-03-17T05:53:58;14.8;45.7
78467;SHT31;67759;51.972;5.650;2024-03-17T05:56:27;14.7;46.0
78467;SHT31;67759;51.972;5.650;2024-03-17T05:58:56;14.7;46.1
78467;SHT31;67759;51.972;5.650;2024-03-17T06:01:24;14.7;46.2
78467;SHT31;67759;51.972;5.650;2024-03-17T06:03:53;14.7;46.1
78467;SHT31;67759;51.972;5.650;2024-03-17T06:06:21;14.6;46.2
78467;SHT31;67759;51.972;5.650;2024-03-17T06:08:50;14.6;46.3
78467;SHT31;67759;51.972;5.650;2024-03-17T06:11:19;14.5;46.4
78467;SHT31;67759;51.972;5.650;2024-03-17T06:13:50;14.4;46.5
78467;SHT31;67759;51.972;5.650;2024-03-17T06:16:19;14.4;46.8
78467;SHT31;67759;51.972;5.650;2024-03-17T06:18:49;14.3;46.9
78467;SHT31;67759;51.972;5.650;2024-03-17T06:21:18;14.3;46.9
78467;SHT31;67759;51.972;5.650;2024-03-17T06:23:46;14.2;47.2
78467;SHT31;67759;51.972;5.650;2024-03-17T06:26:15;14.2;47.5
78467;SHT31;67759;51.972;5.650;2024-03-17T06:28:44;14.3;47.7
78467;SHT31;67759;51.972;5.650;2024-03-17T06:31:12;14.3;47.5
78467;SHT31;67759;51.972;5.650;2024-03-17T06:33:43;14.5;47.3
78467;SHT31;67759;51.972;5.650;2024-03-17T06:36:13;14.6;46.9
78467;SHT31;67759;51.972;5.650;2024-03-17T06:38:47;14.7;46.6
78467;SHT31;67759;51.972;5.650;2024-03-17T06:41:16;14.7;46.7
78467;SHT31;67759;51.972;5.650;2024-03-17T06:43:46;14.9;46.1
78467;SHT31;67759;51.972;5.650;2024-03-17T06:46:16;14.9;45.8
78467;SHT31;67759;51.972;5.650;2024-03-17T06:48:45;14.9;45.8
78467;SHT31;67759;51.972;5.650;2024-03-17T06:51:13;14.8;46.2
78467;SHT31;67759;51.972;5.650;2024-03-17T06:53:44;14.8;46.2
78467;SHT31;67759;51.972;5.650;2024-03-17T06:56:13;14.7;46.4
78467;SHT31;67759;51.972;5.650;2024-03-17T06:58:42;14.7;46.5
78467;SHT31;67759;51.972;5.650;2024-03-17T07:01:13;14.6;46.7
78467;SHT31;67759;51.972;5.650;2024-03-17T07:03:41;14.6;47.0
78467;SHT31;67759;51.972;5.650;2024-03-17T07:06:10;14.7;47.1
78467;SHT31;67759;51.972;5.650;2024-03-17T07:08:39;14.7;47.3
78467;SHT31;67759;51.972;5.650;2024-03-17T07:11:10;14.9;47.0
78467;SHT31;67759;51.972;5.650;2024-03-17T07:13:39;15.0;46.8
78467;SHT31;67759;51.972;5.650;2024-03-17T07:16:08;15.0;46.2
78467;SHT31;67759;51.972;5.650;2024-03-17T07:18:37;15.0;46.0
78467;SHT31;67759;51.972;5.650;2024-03-17T07:21:05;14.9;45.9
78467;SHT31;67759;51.972;5.650;2024-03-17T07:23:37;14.8;46.6
78467;SHT31;67759;51.972;5.650;2024-03-17T07:26:05;14.7;47.0
78467;SHT31;67759;51.972;5.650;2024-03-17T07:28:36;14.6;47.4
78467;SHT31;67759;51.972;5.650;2024-03-17T07:31:09;14.5;47.9
78467;SHT31;67759;51.972;5.650;2024-03-17T07:33:38;14.4;48.5
78467;SHT31;67759;51.972;5.650;2024-03-17T07:36:08;14.4;48.3
78467;SHT31;67759;51.972;5.650;2024-03-17T07:38:38;14.4;48.1
78467;SHT31;67759;51.972;5.650;2024-03-17T07:41:08;14.4;48.1
78467;SHT31;67759;51.972;5.650;2024-03-17T07:43:39;14.4;47.9
78467;SHT31;67759;51.972;5.650;2024-03-17T07:46:09;14.4;48.3
78467;SHT31;67759;51.972;5.650;2024-03-17T07:48:41;14.4;48.2
78467;SHT31;67759;51.972;5.650;2024-03-17T07:51:11;14.5;47.7
78467;SHT31;67759;51.972;5.650;2024-03-17T07:53:41;14.5;47.4
78467;SHT31;67759;51.972;5.650;2024-03-17T07:56:12;14.5;47.3
78467;SHT31;67759;51.972;5.650;2024-03-17T07:58:45;14.6;47.3
78467;SHT31;67759;51.972;5.650;2024-03-17T08:01:17;14.6;47.5
78467;SHT31;67759;51.972;5.650;2024-03-17T08:03:47;14.6;47.5
78467;SHT31;67759;51.972;5.650;2024-03-17T08:06:21;14.6;47.5
78467;SHT31;67759;51.972;5.650;2024-03-17T08:08:51;14.6;48.0
78467;SHT31;67759;51.972;5.650;2024-03-17T08:11:21;14.7;47.5
78467;SHT31;67759;51.972;5.650;2024-03-17T08:13:49;14.8;47.5
78467;SHT31;67759;51.972;5.650;2024-03-17T08:16:19;15.0;47.3
78467;SHT31;67759;51.972;5.650;2024-03-17T08:18:48;15.1;47.0
78467;SHT31;67759;51.972;5.650;2024-03-17T08:21:18;15.3;46.7
78467;SHT31;67759;51.972;5.650;2024-03-17T08:23:47;15.4;46.2
78467;SHT31;67759;51.972;5.650;2024-03-17T08:26:16;15.5;45.5
78467;SHT31;67759;51.972;5.650;2024-03-17T08:28:45;15.6;45.4
78467;SHT31;67759;51.972;5.650;2024-03-17T08:31:14;15.6;45.3
78467;SHT31;67759;51.972;5.650;2024-03-17T08:33:43;15.7;45.0
78467;SHT31;67759;51.972;5.650;2024-03-17T08:36:17;15.7;44.8
78467;SHT31;67759;51.972;5.650;2024-03-17T08:38:47;15.8;44.3
78467;SHT31;67759;51.972;5.650;2024-03-17T08:41:16;15.8;44.1
78467;SHT31;67759;51.972;5.650;2024-03-17T08:43:45;15.9;44.4
78467;SHT31;67759;51.972;5.650;2024-03-17T08:46:14;15.9;44.7
78467;SHT31;67759;51.972;5.650;2024-03-17T08:48:42;15.9;44.7
78467;SHT31;67759;51.972;5.650;2024-03-17T08:51:11;16.0;44.2
78467;SHT31;67759;51.972;5.650;2024-03-17T08:53:41;16.0;44.4
78467;SHT31;67759;51.972;5.650;2024-03-17T08:56:10;16.1;44.3
78467;SHT31;67759;51.972;5.650;2024-03-17T08:58:38;16.1;44.4
78467;SHT31;67759;51.972;5.650;2024-03-17T09:01:08;16.1;44.9
78467;SHT31;67759;51.972;5.650;2024-03-17T09:03:38;16.2;44.3
78467;SHT31;67759;51.972;5.650;2024-03-17T09:06:16;16.3;44.1
78467;SHT31;67759;51.972;5.650;2024-03-17T09:08:46;16.4;43.8
78467;SHT31;67759;51.972;5.650;2024-03-17T09:11:15;16.4;43.6
78467;SHT31;67759;51.972;5.650;2024-03-17T09:13:44;16.4;43.7
78467;SHT31;67759;51.972;5.650;2024-03-17T09:16:13;16.4;43.9
78467;SHT31;67759;51.972;5.650;2024-03-17T09:18:44;16.4;43.8
78467;SHT31;67759;51.972;5.650;2024-03-17T09:21:13;16.5;44.4
78467;SHT31;67759;51.972;5.650;2024-03-17T09:23:42;16.5;44.0
78467;SHT31;67759;51.972;5.650;2024-03-17T09:26:11;16.5;44.4
78467;SHT31;67759;51.972;5.650;2024-03-17T09:28:42;16.6;44.3
78467;SHT31;67759;51.972;5.650;2024-03-17T09:31:11;16.7;44.0
78467;SHT31;67759;51.972;5.650;2024-03-17T09:33:40;16.8;43.9
78467;SHT31;67759;51.972;5.650;2024-03-17T09:36:09;16.8;44.1
78467;SHT31;67759;51.972;5.650;2024-03-17T09:38:39;16.9;43.6
78467;SHT31;67759;51.972;5.650;2024-03-17T09:41:19;17.0;42.9
78467;SHT31;67759;51.972;5.650;2024-03-17T09:43:48;17.0;43.0
78467;SHT31;67759;51.972;5.650;2024-03-17T09:46:18;17.0;42.9
78467;SHT31;67759;51.972;5.650;2024-03-17T09:48:47;17.1;43.0
78467;SHT31;67759;51.972;5.650;2024-03-17T09:51:19;17.1;43.0
78467;SHT31;67759;51.972;5.650;2024-03-17T09:53:49;17.1;43.3
78467;SHT31;67759;51.972;5.650;2024-03-17T09:56:20;17.2;43.1
78467;SHT31;67759;51.972;5.650;2024-03-17T09:58:50;17.3;43.1
78467;SHT31;67759;51.972;5.650;2024-03-17T10:01:20;17.3;43.5
78467;SHT31;67759;51.972;5.650;2024-03-17T10:03:51;17.4;43.5
78467;SHT31;67759;51.972;5.650;2024-03-17T10:06:22;17.4;43.0
78467;SHT31;67759;51.972;5.650;2024-03-17T10:08:52;17.5;42.7
78467;SHT31;67759;51.972;5.650;2024-03-17T10:11:22;17.6;42.8
78467;SHT31;67759;51.972;5.650;2024-03-17T10:14:01;17.6;42.9
78467;SHT31;67759;51.972;5.650;2024-03-17T10:16:32;17.8;42.2
78467;SHT31;67759;51.972;5.650;2024-03-17T10:19:09;17.9;42.3
78467;SHT31;67759;51.972;5.650;2024-03-17T10:21:40;18.0;42.8
78467;SHT31;67759;51.972;5.650;2024-03-17T10:24:11;18.2;41.6
78467;SHT31;67759;51.972;5.650;2024-03-17T10:26:43;18.3;41.0
78467;SHT31;67759;51.972;5.650;2024-03-17T10:29:23;18.4;40.8
78467;SHT31;67759;51.972;5.650;2024-03-17T10:31:54;18.5;40.9
78467;SHT31;67759;51.972;5.650;2024-03-17T10:34:24;18.5;40.7
78467;SHT31;67759;51.972;5.650;2024-03-17T10:37:05;18.6;40.2
78467;SHT31;67759;51.972;5.650;2024-03-17T10:39:34;18.6;40.5
78467;SHT31;67759;51.972;5.650;2024-03-17T10:42:04;18.7;40.6
78467;SHT31;67759;51.972;5.650;2024-03-17T10:44:35;18.7;40.6
78467;SHT31;67759;51.972;5.650;2024-03-17T10:47:07;18.9;40.2
78467;SHT31;67759;51.972;5.650;2024-03-17T10:49:38;19.0;40.4
78467;SHT31;67759;51.972;5.650;2024-03-17T10:52:17;19.1;40.2
78467;SHT31;67759;51.972;5.650;2024-03-17T10:54:49;19.3;40.4
78467;SHT31;67759;51.972;5.650;2024-03-17T10:57:31;19.4;39.8
78467;SHT31;67759;51.972;5.650;2024-03-17T11:00:00;19.5;39.5
78467;SHT31;67759;51.972;5.650;2024-03-17T11:02:31;19.5;39.8
78467;SHT31;67759;51.972;5.650;2024-03-17T11:05:05;19.6;39.7
78467;SHT31;67759;51.972;5.650;2024-03-17T11:07:34;19.6;39.5
78467;SHT31;67759;51.972;5.650;2024-03-17T11:10:15;19.6;40.1
78467;SHT31;67759;51.972;5.650;2024-03-17T11:12:46;19.6;40.1
78467;SHT31;67759;51.972;5.650;2024-03-17T11:15:38;19.6;39.9
78467;SHT31;67759;51.972;5.650;2024-03-17T11:20:29;19.7;40.4
78467;SHT31;67759;51.972;5.650;2024-03-17T11:22:59;19.8;39.8
78467;SHT31;67759;51.972;5.650;2024-03-17T11:25:40;19.8;39.7
78467;SHT31;67759;51.972;5.650;2024-03-17T11:28:10;19.8;39.6
78467;SHT31;67759;51.972;5.650;2024-03-17T11:30:48;19.9;39.2
78467;SHT31;67759;51.972;5.650;2024-03-17T11:33:48;19.9;39.1
78467;SHT31;67759;51.972;5.650;2024-03-17T11:36:38;19.9;39.2
78467;SHT31;67759;51.972;5.650;2024-03-17T11:39:08;19.9;39.3
78467;SHT31;67759;51.972;5.650;2024-03-17T11:41:44;19.9;38.6
78467;SHT31;67759;51.972;5.650;2024-03-17T11:44:26;19.9;38.9
78467;SHT31;67759;51.972;5.650;2024-03-17T11:46:57;19.8;38.5
78467;SHT31;67759;51.972;5.650;2024-03-17T11:49:27;19.7;38.9
78467;SHT31;67759;51.972;5.650;2024-03-17T11:51:58;19.7;39.0
78467;SHT31;67759;51.972;5.650;2024-03-17T11:54:29;19.7;39.0
78467;SHT31;67759;51.972;5.650;2024-03-17T11:57:02;19.6;39.1
78467;SHT31;67759;51.972;5.650;2024-03-17T11:59:32;19.5;39.4
78467;SHT31;67759;51.972;5.650;2024-03-17T12:02:01;19.3;39.6
78467;SHT31;67759;51.972;5.650;2024-03-17T12:04:30;19.1;40.4
78467;SHT31;67759;51.972;5.650;2024-03-17T12:06:59;19.0;40.9
78467;SHT31;67759;51.972;5.650;2024-03-17T12:09:30;18.9;41.1
78467;SHT31;67759;51.972;5.650;2024-03-17T12:12:03;18.8;41.4
78467;SHT31;67759;51.972;5.650;2024-03-17T12:14:35;18.7;42.1
78467;SHT31;67759;51.972;5.650;2024-03-17T12:17:06;18.6;42.5
78467;SHT31;67759;51.972;5.650;2024-03-17T12:19:36;18.5;42.8
78467;SHT31;67759;51.972;5.650;2024-03-17T12:22:06;18.5;43.2
78467;SHT31;67759;51.972;5.650;2024-03-17T12:24:36;18.4;43.3
78467;SHT31;67759;51.972;5.650;2024-03-17T12:27:06;18.4;42.9
78467;SHT31;67759;51.972;5.650;2024-03-17T12:29:37;18.4;43.3
78467;SHT31;67759;51.972;5.650;2024-03-17T12:32:15;18.4;43.5
78467;SHT31;67759;51.972;5.650;2024-03-17T12:34:46;18.5;43.6
78467;SHT31;67759;51.972;5.650;2024-03-17T12:37:18;18.5;43.2
78467;SHT31;67759;51.972;5.650;2024-03-17T12:39:49;18.5;43.6
78467;SHT31;67759;51.972;5.650;2024-03-17T12:42:23;18.6;43.6
78467;SHT31;67759;51.972;5.650;2024-03-17T12:44:54;18.9;43.0
78467;SHT31;67759;51.972;5.650;2024-03-17T12:47:24;19.1;42.5
78467;SHT31;67759;51.972;5.650;2024-03-17T12:49:54;19.1;42.2
78467;SHT31;67759;51.972;5.650;2024-03-17T12:52:24;19.2;42.5
78467;SHT31;67759;51.972;5.650;2024-03-17T12:55:00;19.2;42.3
78467;SHT31;67759;51.972;5.650;2024-03-17T12:57:47;19.2;42.0
78467;SHT31;67759;51.972;5.650;2024-03-17T13:00:32;19.2;41.8
78467;SHT31;67759;51.972;5.650;2024-03-17T13:03:03;19.2;41.8
78467;SHT31;67759;51.972;5.650;2024-03-17T13:05:32;19.1;42.0
78467;SHT31;67759;51.972;5.650;2024-03-17T13:08:01;19.0;42.6
78467;SHT31;67759;51.972;5.650;2024-03-17T13:10:31;19.0;42.7
78467;SHT31;67759;51.972;5.650;2024-03-17T13:13:01;19.0;42.7
78467;SHT31;67759;51.972;5.650;2024-03-17T13:15:32;18.9;42.8
78467;SHT31;67759;51.972;5.650;2024-03-17T13:18:03;18.9;43.2
78467;SHT31;67759;51.972;5.650;2024-03-17T13:20:32;18.8;43.6
78467;SHT31;67759;51.972;5.650;2024-03-17T13:23:01;18.8;43.4
78467;SHT31;67759;51.972;5.650;2024-03-17T13:25:31;18.8;43.0
78467;SHT31;67759;51.972;5.650;2024-03-17T13:28:03;18.8;43.5
78467;SHT31;67759;51.972;5.650;2024-03-17T13:30:33;18.8;43.6
78467;SHT31;67759;51.972;5.650;2024-03-17T13:33:04;18.8;43.4
78467;SHT31;67759;51.972;5.650;2024-03-17T13:35:36;18.8;43.3
78467;SHT31;67759;51.972;5.650;2024-03-17T13:38:06;18.8;43.3
78467;SHT31;67759;51.972;5.650;2024-03-17T13:40:36;18.7;43.7
78467;SHT31;67759;51.972;5.650;2024-03-17T13:43:05;18.6;43.9
78467;SHT31;67759;51.972;5.650;2024-03-17T13:45:39;18.6;44.3
78467;SHT31;67759;51.972;5.650;2024-03-17T13:48:09;18.6;44.3
78467;SHT31;67759;51.972;5.650;2024-03-17T13:50:40;18.5;44.8
78467;SHT31;67759;51.972;5.650;2024-03-17T13:53:11;18.5;44.8
78467;SHT31;67759;51.972;5.650;2024-03-17T13:55:42;18.5;45.3
78467;SHT31;67759;51.972;5.650;2024-03-17T13:58:12;18.6;45.3
78467;SHT31;67759;51.972;5.650;2024-03-17T14:00:40;18.6;45.4
78467;SHT31;67759;51.972;5.650;2024-03-17T14:03:09;18.7;45.6
78467;SHT31;67759;51.972;5.650;2024-03-17T14:05:38;18.7;45.5
78467;SHT31;67759;51.972;5.650;2024-03-17T14:08:07;18.8;44.7
78467;SHT31;67759;51.972;5.650;2024-03-17T14:10:36;18.8;44.8
78467;SHT31;67759;51.972;5.650;2024-03-17T14:13:05;18.9;44.6
78467;SHT31;67759;51.972;5.650;2024-03-17T14:15:34;18.9;44.9
78467;SHT31;67759;51.972;5.650;2024-03-17T14:18:03;18.9;44.1
78467;SHT31;67759;51.972;5.650;2024-03-17T14:20:31;18.9;44.6
78467;SHT31;67759;51.972;5.650;2024-03-17T14:23:00;19.0;43.8
78467;SHT31;67759;51.972;5.650;2024-03-17T14:25:29;19.1;44.2
78467;SHT31;67759;51.972;5.650;2024-03-17T14:27:58;19.2;44.3
78467;SHT31;67759;51.972;5.650;2024-03-17T14:30:27;19.2;43.6
78467;SHT31;67759;51.972;5.650;2024-03-17T14:32:56;19.3;43.3
78467;SHT31;67759;51.972;5.650;2024-03-17T14:35:26;19.4;43.5
78467;SHT31;67759;51.972;5.650;2024-03-17T14:37:56;19.6;43.6
78467;SHT31;67759;51.972;5.650;2024-03-17T14:40:27;19.8;42.0
78467;SHT31;67759;51.972;5.650;2024-03-17T14:42:55;20.0;41.9
78467;SHT31;67759;51.972;5.650;2024-03-17T14:45:24;20.1;41.7
78467;SHT31;67759;51.972;5.650;2024-03-17T14:47:55;20.1;41.9
78467;SHT31;67759;51.972;5.650;2024-03-17T14:50:24;20.2;42.0
78467;SHT31;67759;51.972;5.650;2024-03-17T14:52:54;20.3;41.4
78467;SHT31;67759;51.972;5.650;2024-03-17T14:55:23;20.3;41.2
78467;SHT31;67759;51.972;5.650;2024-03-17T14:57:51;20.3;41.2
78467;SHT31;67759;51.972;5.650;2024-03-17T15:00:20;20.2;41.3
78467;SHT31;67759;51.972;5.650;2024-03-17T15:02:51;20.2;41.5
78467;SHT31;67759;51.972;5.650;2024-03-17T15:05:19;20.1;41.5
78467;SHT31;67759;51.972;5.650;2024-03-17T15:07:51;20.1;41.7
78467;SHT31;67759;51.972;5.650;2024-03-17T15:10:21;20.1;41.5
78467;SHT31;67759;51.972;5.650;2024-03-17T15:12:51;20.0;41.6
78467;SHT31;67759;51.972;5.650;2024-03-17T15:15:20;20.0;42.2
78467;SHT31;67759;51.972;5.650;2024-03-17T15:17:51;20.0;41.8
78467;SHT31;67759;51.972;5.650;2024-03-17T15:20:19;20.0;42.3
78467;SHT31;67759;51.972;5.650;2024-03-17T15:22:49;20.0;42.2
78467;SHT31;67759;51.972;5.650;2024-03-17T15:25:18;19.9;42.3
78467;SHT31;67759;51.972;5.650;2024-03-17T15:27:50;19.9;42.2
78467;SHT31;67759;51.972;5.650;2024-03-17T15:30:19;19.9;42.3
78467;SHT31;67759;51.972;5.650;2024-03-17T15:32:49;19.9;42.2
78467;SHT31;67759;51.972;5.650;2024-03-17T15:35:21;19.9;42.3
78467;SHT31;67759;51.972;5.650;2024-03-17T15:37:50;19.9;42.6
78467;SHT31;67759;51.972;5.650;2024-03-17T15:40:18;19.8;43.1
78467;SHT31;67759;51.972;5.650;2024-03-17T15:42:48;19.8;43.0
78467;SHT31;67759;51.972;5.650;2024-03-17T15:45:17;19.8;43.5
78467;SHT31;67759;51.972;5.650;2024-03-17T15:47:47;19.8;44.3
78467;SHT31;67759;51.972;5.650;2024-03-17T15:50:16;19.8;43.1
78467;SHT31;67759;51.972;5.650;2024-03-17T15:52:45;19.8;43.1
78467;SHT31;67759;51.972;5.650;2024-03-17T15:55:14;19.8;43.2
78467;SHT31;67759;51.972;5.650;2024-03-17T15:57:43;19.8;43.1
78467;SHT31;67759;51.972;5.650;2024-03-17T16:00:14;19.8;43.0
78467;SHT31;67759;51.972;5.650;2024-03-17T16:02:47;19.7;43.2
78467;SHT31;67759;51.972;5.650;2024-03-17T16:05:19;19.7;43.3
78467;SHT31;67759;51.972;5.650;2024-03-17T16:07:47;19.7;43.7
78467;SHT31;67759;51.972;5.650;2024-03-17T16:10:20;19.7;43.7
78467;SHT31;67759;51.972;5.650;2024-03-17T16:12:50;19.7;43.8
78467;SHT31;67759;51.972;5.650;2024-03-17T16:15:19;19.7;43.8
78467;SHT31;67759;51.972;5.650;2024-03-17T16:17:50;19.6;43.8
78467;SHT31;67759;51.972;5.650;2024-03-17T16:20:59;19.6;44.3
78467;SHT31;67759;51.972;5.650;2024-03-17T16:23:32;19.6;44.1
78467;SHT31;67759;51.972;5.650;2024-03-17T16:26:03;19.6;44.0
78467;SHT31;67759;51.972;5.650;2024-03-17T16:28:34;19.6;44.1